Time;durP1;ratioP1;P1;durP2;ratioP2;P2;SDS_P1;SDS_P2;PMS_P1;PMS_P2;Temp;Humidity;BMP_temperature;BMP_pressure;BME280_temperature;BME280_humidity;BME280_pressure;Samples;Min_cycle;Max_cycle;Signal;HPM_P1;HPM_P2
2021/09/14 00:00:09;;;;;;;8.30;7.07;;;;;;;14.77;72.30;101831.44;6248438;28;20227;-52
2021/09/14 00:03:33;;;;;;;8.70;7.80;;;;;;;14.73;72.60;101830.63;6252302;28;20232;-50
2021/09/14 00:06:54;;;;;;;8.07;6.67;;;;;;;14.77;72.31;101836.69;6250608;28;20219;-50
2021/09/14 00:10:15;;;;;;;8.13;7.33;;;;;;;14.81;72.24;101838.41;6253565;28;20267;-51
2021/09/14 00:13:37;;;;;;;9.07;7.97;;;;;;;14.61;72.88;101833.34;6237078;28;20239;-48
2021/09/14 00:16:58;;;;;;;7.17;6.57;;;;;;;14.60;72.71;101831.63;6244845;28;20303;-48
2021/09/14 00:20:19;;;;;;;9.97;7.00;;;;;;;14.59;72.75;101829.03;6244194;28;20220;-51
2021/09/14 00:23:41;;;;;;;9.20;7.40;;;;;;;14.53;72.79;101833.41;6246709;28;20232;-47
2021/09/14 00:27:01;;;;;;;9.80;7.00;;;;;;;14.57;72.80;101831.66;6246005;28;20228;-50
2021/09/14 00:30:24;;;;;;;8.07;7.27;;;;;;;14.46;73.13;101833.47;6229025;28;20227;-52
2021/09/14 00:33:45;;;;;;;7.33;5.87;;;;;;;14.47;73.08;101838.69;6250784;28;20216;-48
2021/09/14 00:37:06;;;;;;;7.50;6.87;;;;;;;14.45;73.10;101834.38;6246523;28;20262;-49
2021/09/14 00:40:27;;;;;;;7.47;5.83;;;;;;;14.51;73.00;101832.53;6249679;28;20308;-49
2021/09/14 00:43:56;;;;;;;7.00;6.30;;;;;;;14.43;73.05;101833.50;6247237;28;20613;-47
2021/09/14 00:47:18;;;;;;;8.17;7.07;;;;;;;14.44;73.00;101830.00;6244185;28;20243;-48
2021/09/14 00:50:39;;;;;;;10.30;7.13;;;;;;;14.64;72.15;101822.84;6239235;28;20232;-47
2021/09/14 00:54:01;;;;;;;8.23;6.80;;;;;;;14.51;72.54;101829.91;6239813;28;20248;-49
2021/09/14 00:57:22;;;;;;;7.43;6.50;;;;;;;14.69;72.11;101826.28;6249061;28;20232;-48
2021/09/14 01:00:42;;;;;;;6.87;5.60;;;;;;;14.65;72.05;101835.06;6249089;28;20539;-47
2021/09/14 01:04:06;;;;;;;6.80;6.10;;;;;;;14.70;71.56;101817.53;6258697;28;20224;-49
2021/09/14 01:07:28;;;;;;;7.73;6.00;;;;;;;14.61;71.84;101827.25;6249098;28;20256;-50
2021/09/14 01:10:49;;;;;;;7.70;5.93;;;;;;;14.46;71.95;101823.88;6233987;28;20231;-50
2021/09/14 01:14:11;;;;;;;7.07;6.40;;;;;;;14.60;71.66;101821.16;6225167;28;20228;-51
2021/09/14 01:17:33;;;;;;;6.93;6.27;;;;;;;14.46;72.27;101818.63;6238075;28;20518;-47
2021/09/14 01:20:56;;;;;;;6.63;5.60;;;;;;;14.50;71.94;101816.81;6245666;28;20576;-49
2021/09/14 01:24:18;;;;;;;6.97;6.27;;;;;;;14.55;71.84;101812.41;6245061;28;20235;-53
2021/09/14 01:27:49;;;;;;;8.30;5.67;;;;;;;14.54;71.98;101823.81;6232601;28;20534;-51
2021/09/14 01:31:18;;;;;;;6.87;5.87;;;;;;;14.22;72.91;101824.94;6231520;28;20220;-52
2021/09/14 01:34:40;;;;;;;6.43;5.83;;;;;;;14.43;72.26;101821.28;6245563;28;20550;-52
2021/09/14 01:38:02;;;;;;;6.60;4.67;;;;;;;14.31;72.54;101824.88;6247307;28;20224;-49
2021/09/14 01:41:30;;;;;;;8.73;6.57;;;;;;;14.25;73.07;101818.78;6233389;28;20239;-50
2021/09/14 01:44:51;;;;;;;6.47;5.20;;;;;;;14.38;72.69;101817.81;6244232;28;20223;-51
2021/09/14 01:48:12;;;;;;;5.67;5.17;;;;;;;14.62;71.77;101816.75;6228198;28;20560;-49
2021/09/14 01:51:35;;;;;;;7.03;5.30;;;;;;;14.47;72.60;101819.50;6229192;28;20507;-54
2021/09/14 01:54:56;;;;;;;7.00;5.13;;;;;;;14.52;72.54;101820.28;6245641;28;20251;-51
2021/09/14 01:58:19;;;;;;;7.03;5.60;;;;;;;14.71;71.69;101813.16;6228972;28;20224;-52
2021/09/14 02:01:44;;;;;;;7.77;5.23;;;;;;;14.42;72.37;101808.16;6246803;28;20228;-51
2021/09/14 02:05:09;;;;;;;6.03;5.00;;;;;;;14.52;72.04;101808.09;6236328;28;20251;-51
2021/09/14 02:08:51;;;;;;;7.10;5.00;;;;;;;14.35;72.61;101810.84;6210069;28;20841;-50
2021/09/14 02:38:31;;;;;;;7.07;4.90;;;;;;;14.11;73.83;101803.19;6220820;28;20235;-51
2021/09/14 02:58:37;;;;;;;4.83;4.33;;;;;;;14.47;72.92;101793.28;6233456;28;20240;-49
2021/09/14 03:00:42;;;;;;;6.67;4.37;;;;;;;14.40;72.75;101795.06;6235088;28;20228;-52
2021/09/14 03:04:05;;;;;;;5.67;4.63;;;;;;;14.59;72.82;101787.94;6239737;28;20327;-49
2021/09/14 03:07:28;;;;;;;6.73;4.23;;;;;;;14.36;74.03;101794.25;6226183;28;20224;-50
2021/09/14 03:10:49;;;;;;;11.30;10.20;;;;;;;14.48;73.94;101797.63;6223401;28;20466;-51
2021/09/14 03:14:10;;;;;;;24.33;22.10;;;;;;;14.35;74.49;101796.88;6230064;28;20236;-50
2021/09/14 03:17:31;;;;;;;10.93;9.80;;;;;;;14.75;73.06;101793.88;6225790;28;20240;-48
2021/09/14 03:20:52;;;;;;;7.33;4.50;;;;;;;14.67;72.29;101793.09;6240531;28;20232;-50
2021/09/14 03:24:14;;;;;;;4.93;4.43;;;;;;;14.76;72.20;101793.88;6244926;28;20239;-48
2021/09/14 03:27:35;;;;;;;5.20;4.70;;;;;;;14.59;72.99;101787.94;6247116;28;20231;-48
2021/09/14 03:30:57;;;;;;;6.30;4.73;;;;;;;14.59;72.50;101790.56;6247771;28;20220;-48
2021/09/14 03:34:18;;;;;;;4.63;4.23;;;;;;;14.68;72.76;101787.00;6241893;28;20224;-53
2021/09/14 03:37:39;;;;;;;6.30;4.10;;;;;;;14.66;72.99;101786.13;6239824;28;20998;-49
2021/09/14 03:41:02;;;;;;;7.23;5.53;;;;;;;14.54;73.46;101787.09;6232463;28;20228;-48
2021/09/14 03:44:23;;;;;;;9.43;6.47;;;;;;;14.79;72.22;101785.09;6243950;28;20228;-51
2021/09/14 03:47:43;;;;;;;5.87;4.07;;;;;;;14.89;71.54;101784.13;6255015;28;20235;-53
2021/09/14 03:51:06;;;;;;;9.87;7.97;;;;;;;14.71;72.29;101774.72;6231570;28;20231;-54
2021/09/14 03:54:27;;;;;;;6.53;4.77;;;;;;;14.79;71.54;101785.09;6247833;28;20235;-51
2021/09/14 03:57:50;;;;;;;4.90;4.13;;;;;;;14.82;71.61;101779.81;6243059;28;20244;-51
2021/09/14 04:01:12;;;;;;;7.97;4.10;;;;;;;14.86;71.96;101780.66;6248743;28;20227;-51
2021/09/14 04:04:41;;;;;;;8.53;4.83;;;;;;;14.91;72.19;101779.72;6252682;28;20232;-54
2021/09/14 04:11:43;;;;;;;4.77;3.70;;;;;;;15.12;71.81;101783.84;6238177;28;20510;-52
2021/09/14 04:15:07;;;;;;;5.63;3.77;;;;;;;15.30;71.03;101787.13;6237455;28;20228;-52
2021/09/14 04:18:28;;;;;;;8.50;4.03;;;;;;;15.22;71.12;101786.34;6232432;28;20331;-51
2021/09/14 04:21:50;;;;;;;5.30;4.00;;;;;;;15.18;71.83;101782.03;6233552;28;20231;-50
2021/09/14 04:25:20;;;;;;;6.93;4.23;;;;;;;15.22;71.61;101784.59;6236278;28;20500;-47
2021/09/14 04:28:41;;;;;;;6.67;4.77;;;;;;;15.10;71.82;101785.63;6232742;28;20228;-54
2021/09/14 04:32:04;;;;;;;5.73;3.77;;;;;;;15.11;72.17;101787.34;6245425;28;20233;-50
2021/09/14 04:35:26;;;;;;;6.57;4.23;;;;;;;15.21;72.28;101785.47;6246547;28;20237;-52
2021/09/14 04:38:47;;;;;;;5.17;3.77;;;;;;;15.26;71.88;101785.44;6235753;28;20326;-50
2021/09/14 04:42:08;;;;;;;4.90;3.97;;;;;;;15.38;71.79;101794.91;6234393;28;20318;-46
2021/09/14 04:45:31;;;;;;;5.73;3.83;;;;;;;15.47;71.30;101784.25;6226618;28;20232;-52
2021/09/14 04:48:53;;;;;;;6.47;4.30;;;;;;;15.65;70.47;101777.88;6243462;28;20802;-51
2021/09/14 04:52:14;;;;;;;6.10;4.30;;;;;;;15.56;70.42;101777.09;6230565;28;20232;-50
2021/09/14 04:55:35;;;;;;;8.07;4.57;;;;;;;15.52;70.58;101772.78;6231409;28;20240;-48
2021/09/14 04:58:56;;;;;;;7.90;4.20;;;;;;;15.56;69.90;101774.47;6231914;28;20830;-52
2021/09/14 05:02:17;;;;;;;7.63;4.93;;;;;;;15.49;70.18;101772.84;6245537;28;20236;-50
2021/09/14 05:05:41;;;;;;;6.53;4.00;;;;;;;15.50;69.69;101774.56;6237591;28;20315;-47
2021/09/14 05:09:03;;;;;;;4.87;3.13;;;;;;;15.43;70.01;101778.19;6245141;28;20752;-50
2021/09/14 05:12:30;;;;;;;5.60;3.60;;;;;;;15.51;70.11;101773.69;6223581;28;20239;-49
2021/09/14 05:15:51;;;;;;;6.63;4.57;;;;;;;15.64;69.64;101776.13;6244152;28;20231;-49
2021/09/14 05:19:37;;;;;;;6.83;5.40;;;;;;;15.54;70.49;101773.63;6227197;28;20252;-49
2021/09/14 05:23:11;;;;;;;4.30;3.87;;;;;;;15.59;70.05;101763.09;6243903;28;20228;-47
2021/09/14 05:26:32;;;;;;;6.43;4.00;;;;;;;15.70;69.82;101762.91;6245274;28;20303;-50
2021/09/14 05:29:53;;;;;;;6.27;3.83;;;;;;;15.78;69.24;101761.09;6239522;28;20257;-52
2021/09/14 05:33:15;;;;;;;6.87;4.13;;;;;;;15.70;69.24;101755.91;6248232;28;20224;-50
2021/09/14 05:36:36;;;;;;;6.70;3.93;;;;;;;15.71;69.46;101751.53;6232251;28;20231;-51
2021/09/14 05:39:59;;;;;;;4.50;3.03;;;;;;;15.86;68.89;101755.72;6234658;28;20228;-50
2021/09/14 05:43:20;;;;;;;5.27;3.30;;;;;;;15.91;68.82;101749.47;6227908;28;20274;-52
2021/09/14 05:46:42;;;;;;;6.90;4.07;;;;;;;15.87;68.79;101758.28;6225291;28;20955;-53
2021/09/14 05:50:03;;;;;;;5.57;3.37;;;;;;;15.97;68.60;101745.88;6240024;28;20234;-53
2021/09/14 05:53:24;;;;;;;5.33;3.40;;;;;;;15.92;68.50;101745.09;6226240;28;20232;-48
2021/09/14 05:56:52;;;;;;;6.17;3.23;;;;;;;15.98;68.66;101750.25;6232967;28;20245;-51
2021/09/14 06:00:14;;;;;;;6.23;3.40;;;;;;;16.17;68.18;101760.44;6246219;28;20235;-51
2021/09/14 06:03:35;;;;;;;6.47;4.00;;;;;;;16.31;67.88;101761.06;6238393;28;20237;-49
2021/09/14 06:06:59;;;;;;;6.43;4.00;;;;;;;16.37;67.48;101766.22;6229006;28;20232;-49
2021/09/14 06:10:21;;;;;;;5.47;4.13;;;;;;;16.17;68.07;101768.31;6225505;28;20266;-48
2021/09/14 06:14:00;;;;;;;11.33;4.50;;;;;;;16.32;68.26;101766.31;6221115;28;20235;-52
2021/09/14 06:17:21;;;;;;;6.87;5.37;;;;;;;16.21;68.30;101770.88;6218881;28;20647;-50
2021/09/14 06:20:44;;;;;;;4.73;4.07;;;;;;;16.20;68.54;101760.38;6221907;28;21916;-49
2021/09/14 06:24:06;;;;;;;5.10;3.33;;;;;;;16.20;68.90;101765.66;6223154;28;20232;-47
2021/09/14 06:27:27;;;;;;;5.03;4.03;;;;;;;16.38;68.63;101759.19;6240736;28;20224;-49
2021/09/14 06:30:50;;;;;;;9.13;4.57;;;;;;;16.62;68.03;101757.88;6239176;28;20227;-51
2021/09/14 06:34:15;;;;;;;7.03;5.67;;;;;;;16.78;67.49;101761.06;6229395;28;20236;-49
2021/09/14 06:37:37;;;;;;;9.53;4.03;;;;;;;16.95;67.05;101755.50;6244656;28;20236;-48
2021/09/14 06:40:58;;;;;;;7.50;5.93;;;;;;;16.88;67.48;101760.00;6239665;28;20239;-51
2021/09/14 06:44:26;;;;;;;6.57;4.10;;;;;;;16.91;67.32;101757.31;6226752;28;20236;-52
2021/09/14 06:47:55;;;;;;;4.50;3.63;;;;;;;16.95;66.94;101760.78;6214179;28;20297;-51
2021/09/14 06:51:16;;;;;;;6.30;4.23;;;;;;;17.10;66.67;101758.69;6232989;28;20334;-55
2021/09/14 06:54:38;;;;;;;4.77;4.17;;;;;;;17.13;66.45;101766.47;6238029;28;20239;-53
2021/09/14 06:57:59;;;;;;;7.93;4.67;;;;;;;17.07;66.79;101764.00;6230142;28;22063;-53
2021/09/14 07:01:21;;;;;;;11.30;5.37;;;;;;;17.25;66.61;101753.97;6237193;28;20227;-51
2021/09/14 07:04:45;;;;;;;6.90;4.00;;;;;;;17.36;65.92;101754.59;6243702;28;20296;-51
2021/09/14 07:08:06;;;;;;;6.50;3.70;;;;;;;17.50;65.52;101760.41;6236563;28;20224;-52
2021/09/14 07:11:27;;;;;;;3.90;3.53;;;;;;;17.71;64.85;101766.09;6237151;28;20256;-51
2021/09/14 07:14:48;;;;;;;8.13;4.27;;;;;;;17.92;64.29;101766.50;6234671;28;20227;-55
2021/09/14 07:18:09;;;;;;;8.17;3.50;;;;;;;18.05;63.98;101762.69;6236573;28;20227;-50
2021/09/14 07:21:31;;;;;;;7.50;3.92;;;;;;;18.09;63.56;101759.06;6239416;28;20232;-46
2021/09/14 07:24:52;;;;;;;5.63;4.00;;;;;;;18.24;63.38;101748.13;6238501;28;20227;-54
2021/09/14 07:28:13;;;;;;;6.38;4.05;;;;;;;18.43;63.00;101752.88;6237272;28;20883;-50
2021/09/14 07:31:35;;;;;;;6.13;4.13;;;;;;;18.28;62.64;101751.50;6241289;28;20731;-53
2021/09/14 07:34:56;;;;;;;8.27;4.25;;;;;;;18.33;63.05;101740.84;6239023;28;20672;-52
2021/09/14 07:38:19;;;;;;;7.50;3.58;;;;;;;18.33;63.03;101740.84;6232740;28;20239;-51
2021/09/14 07:41:40;;;;;;;3.92;3.45;;;;;;;18.42;62.55;101735.34;6237009;28;20239;-50
2021/09/14 07:45:01;;;;;;;4.72;3.28;;;;;;;18.33;62.36;101735.59;6240119;28;20669;-52
2021/09/14 07:48:22;;;;;;;4.75;3.47;;;;;;;18.13;63.10;101739.63;6235062;28;20277;-49
2021/09/14 07:51:43;;;;;;;5.80;3.97;;;;;;;18.32;62.99;101731.19;6235086;28;20235;-50
2021/09/14 07:55:07;;;;;;;4.97;3.35;;;;;;;18.37;62.39;101734.59;6232418;28;20232;-47
2021/09/14 07:58:28;;;;;;;8.27;4.03;;;;;;;18.37;62.98;101732.81;6234506;28;20240;-51
2021/09/14 08:01:49;;;;;;;5.88;3.55;;;;;;;18.31;62.32;101735.63;6223039;28;20224;-51
2021/09/14 08:05:10;;;;;;;7.55;4.25;;;;;;;18.41;62.91;101733.59;6243523;28;20676;-49
2021/09/14 08:08:31;;;;;;;4.20;2.95;;;;;;;18.15;62.89;101744.84;6237516;28;20236;-49
2021/09/14 08:11:53;;;;;;;5.13;4.33;;;;;;;18.27;63.01;101726.91;6235906;28;20223;-47
2021/09/14 08:15:15;;;;;;;4.78;3.88;;;;;;;18.57;62.40;101734.03;6232088;28;20259;-48
2021/09/14 08:18:36;;;;;;;6.90;4.43;;;;;;;18.25;63.36;101739.28;6224510;28;20236;-49
2021/09/14 08:21:58;;;;;;;7.63;4.47;;;;;;;17.77;65.00;101739.59;6236522;28;20315;-51
2021/09/14 08:25:19;;;;;;;4.78;3.95;;;;;;;18.00;64.82;101743.47;6227889;28;20232;-51
2021/09/14 08:28:41;;;;;;;5.93;4.95;;;;;;;18.54;63.15;101742.91;6244393;28;20233;-52
2021/09/14 08:32:13;;;;;;;8.60;4.63;;;;;;;18.63;63.01;101737.38;6224375;28;20322;-51
2021/09/14 08:35:34;;;;;;;6.88;5.28;;;;;;;18.57;62.79;101736.66;6255826;28;20739;-53
2021/09/14 08:38:55;;;;;;;5.00;3.78;;;;;;;19.19;61.59;101730.50;6248873;28;20567;-53
2021/09/14 08:42:17;;;;;;;8.35;4.47;;;;;;;19.12;61.73;101734.25;6241530;28;20235;-53
2021/09/14 08:45:39;;;;;;;6.57;4.20;;;;;;;19.46;60.48;101731.41;6243277;28;20315;-47
2021/09/14 08:49:00;;;;;;;6.30;4.38;;;;;;;19.63;60.44;101736.16;6247133;28;20224;-50
2021/09/14 08:52:21;;;;;;;5.35;4.00;;;;;;;19.30;60.80;101733.69;6242288;28;20314;-50
2021/09/14 08:55:42;;;;;;;6.78;5.28;;;;;;;19.84;60.71;101737.28;6240282;28;20582;-48
2021/09/14 08:59:04;;;;;;;4.68;4.30;;;;;;;19.61;60.35;101733.56;6245937;28;22768;-50
2021/09/14 09:02:26;;;;;;;5.10;3.78;;;;;;;19.46;60.45;101734.06;6241944;28;20228;-53
2021/09/14 09:05:47;;;;;;;5.57;3.35;;;;;;;18.98;60.95;101740.81;6245800;28;20216;-54
2021/09/14 09:09:13;;;;;;;3.42;3.15;;;;;;;19.36;59.66;101746.69;6243512;28;20310;-52
2021/09/14 09:12:38;;;;;;;3.58;2.35;;;;;;;19.64;59.37;101735.28;6249504;28;20534;-52
2021/09/14 09:15:59;;;;;;;4.97;3.35;;;;;;;19.80;58.85;101731.22;6242330;28;20236;-49
2021/09/14 09:19:26;;;;;;;3.80;2.92;;;;;;;19.07;60.16;101718.53;6235913;28;20262;-49
2021/09/14 09:22:57;;;;;;;4.43;3.08;;;;;;;19.80;58.82;101723.28;6236490;28;20225;-49
2021/09/14 09:26:18;;;;;;;4.50;3.30;;;;;;;19.40;58.72;101727.19;6240280;28;20228;-51
2021/09/14 09:29:40;;;;;;;4.22;3.17;;;;;;;19.90;57.83;101728.28;6239990;28;20232;-53
2021/09/14 09:33:03;;;;;;;6.55;3.65;;;;;;;19.80;57.99;101728.59;6236197;28;20285;-50
2021/09/14 09:36:30;;;;;;;2.97;2.40;;;;;;;20.19;57.02;101737.84;6248427;28;20223;-49
2021/09/14 09:39:51;;;;;;;4.75;2.55;;;;;;;20.08;57.17;101740.00;6239790;28;20327;-51
2021/09/14 09:43:12;;;;;;;6.63;3.10;;;;;;;20.58;56.33;101734.72;6243951;28;20259;-51
2021/09/14 09:46:35;;;;;;;3.55;2.58;;;;;;;20.62;55.12;101734.56;6235227;28;20240;-49
2021/09/14 09:49:58;;;;;;;4.50;2.67;;;;;;;20.89;54.76;101729.16;6227808;28;20617;-54
2021/09/14 09:53:22;;;;;;;5.75;2.78;;;;;;;21.21;53.87;101721.78;6236806;28;20233;-50
2021/09/14 09:56:45;;;;;;;4.70;3.35;;;;;;;21.30;54.60;101725.84;6231283;28;20255;-50
2021/09/14 10:00:11;;;;;;;4.35;2.72;;;;;;;20.83;54.15;101717.03;6229217;28;20244;-54
2021/09/14 10:03:35;;;;;;;4.50;3.85;;;;;;;20.95;53.99;101720.13;6239641;28;20316;-52
2021/09/14 10:07:03;;;;;;;3.38;3.08;;;;;;;20.39;54.27;101719.47;6243506;28;20220;-49
2021/09/14 10:10:35;;;;;;;4.15;2.70;;;;;;;20.91;53.47;101708.78;6239519;28;20248;-54
2021/09/14 10:14:07;;;;;;;6.20;2.70;;;;;;;21.41;52.90;101700.63;6233385;28;20331;-52
2021/09/14 10:17:28;;;;;;;3.65;2.88;;;;;;;22.24;50.28;101701.63;6221115;28;20231;-52
2021/09/14 10:20:49;;;;;;;4.20;2.97;;;;;;;22.04;51.55;101691.88;6229803;28;20266;-49
2021/09/14 10:24:21;;;;;;;5.25;2.45;;;;;;;22.18;49.00;101696.59;6243696;28;20570;-49
2021/09/14 10:27:43;;;;;;;3.45;2.88;;;;;;;21.91;50.11;101693.34;6243204;28;20232;-49
2021/09/14 10:31:18;;;;;;;4.22;2.70;;;;;;;22.52;49.91;101687.16;6242603;28;20315;-51
2021/09/14 10:34:51;;;;;;;3.08;2.38;;;;;;;23.45;46.25;101684.53;6244356;28;20219;-47
2021/09/14 10:38:14;;;;;;;4.55;3.40;;;;;;;24.55;45.54;101686.00;6244151;28;20231;-48
2021/09/14 10:41:37;;;;;;;2.67;2.47;;;;;;;24.16;44.02;101688.94;6242303;28;20228;-51
2021/09/14 10:45:07;;;;;;;6.45;4.53;;;;;;;22.55;46.34;101687.03;6243931;28;20233;-49
2021/09/14 10:48:30;;;;;;;2.83;2.50;;;;;;;24.14;43.89;101680.19;6241979;28;20215;-48
2021/09/14 10:51:55;;;;;;;4.18;2.83;;;;;;;24.03;44.30;101683.41;6246122;28;20515;-51
2021/09/14 10:55:19;;;;;;;4.53;2.65;;;;;;;27.37;38.10;101687.84;6242815;28;20318;-47
2021/09/14 10:58:42;;;;;;;5.15;2.92;;;;;;;30.25;30.63;101680.53;6237872;28;20236;-49
2021/09/14 11:02:05;;;;;;;4.13;1.80;;;;;;;31.43;29.15;101678.16;6238867;28;20232;-51
2021/09/14 11:05:28;;;;;;;2.30;2.10;;;;;;;34.35;26.10;101677.16;6237452;28;20224;-49
2021/09/14 11:08:57;;;;;;;4.07;2.28;;;;;;;29.52;31.46;101670.97;6238375;28;20224;-52
2021/09/14 11:12:20;;;;;;;3.65;2.45;;;;;;;31.12;30.50;101675.34;6238744;28;20589;-51
2021/09/14 11:15:41;;;;;;;3.38;2.58;;;;;;;31.15;28.25;101675.06;6243223;28;20629;-54
2021/09/14 11:19:03;;;;;;;3.00;2.78;;;;;;;28.40;32.85;101680.84;6229102;28;22679;-51
2021/09/14 11:22:34;;;;;;;3.30;2.25;;;;;;;29.68;32.11;101673.31;6237307;28;20970;-51
2021/09/14 11:25:57;;;;;;;3.88;2.50;;;;;;;29.90;31.08;101667.19;6241319;28;22020;-49
2021/09/14 11:29:18;;;;;;;7.22;3.53;;;;;;;26.05;37.97;101673.00;6225737;28;20625;-52
2021/09/14 11:32:39;;;;;;;3.90;2.72;;;;;;;27.67;34.77;101658.19;6239996;28;20240;-50
2021/09/14 11:36:08;;;;;;;2.97;2.45;;;;;;;27.54;35.93;101657.31;6243335;28;20240;-53
2021/09/14 11:39:36;;;;;;;2.85;2.50;;;;;;;29.03;33.34;101659.38;6239404;28;20315;-49
2021/09/14 11:42:59;;;;;;;2.28;2.08;;;;;;;31.99;28.56;101650.94;6238109;28;20733;-50
2021/09/14 11:46:20;;;;;;;3.42;1.90;;;;;;;35.71;23.41;101649.16;6237218;28;20235;-50
2021/09/14 11:49:51;;;;;;;3.10;2.30;;;;;;;36.06;23.16;101652.72;6239556;28;20240;-53
2021/09/14 11:53:16;;;;;;;2.95;2.13;;;;;;;37.69;20.87;101646.03;6246233;28;20223;-54
2021/09/14 11:56:37;;;;;;;3.05;2.75;;;;;;;32.10;26.95;101659.94;6245095;28;20251;-53
2021/09/14 11:59:58;;;;;;;2.85;2.60;;;;;;;33.48;25.28;101636.69;6244770;28;20247;-52
2021/09/14 12:03:21;;;;;;;2.72;2.50;;;;;;;32.33;26.21;101645.28;6244244;28;20235;-48
2021/09/14 12:06:49;;;;;;;5.15;2.95;;;;;;;34.62;24.12;101636.59;6240922;28;20228;-49
2021/09/14 12:10:12;;;;;;;3.75;3.20;;;;;;;29.34;31.59;101625.78;6236551;28;20232;-48
2021/09/14 12:13:38;;;;;;;2.50;2.30;;;;;;;27.75;35.35;101630.06;6244275;28;20236;-48
2021/09/14 12:17:02;;;;;;;3.53;2.65;;;;;;;27.20;36.74;101624.78;6252080;28;20839;-49
2021/09/14 12:20:23;;;;;;;2.63;2.42;;;;;;;30.46;31.22;101615.34;6251441;28;20606;-51
2021/09/14 12:23:44;;;;;;;5.20;2.90;;;;;;;26.42;37.44;101620.00;6246442;28;20235;-47
2021/09/14 12:27:07;;;;;;;3.45;3.00;;;;;;;30.14;31.84;101618.75;6247622;28;20790;-52
2021/09/14 12:30:28;;;;;;;2.90;2.53;;;;;;;34.63;25.54;101599.59;6250609;28;20228;-49
2021/09/14 12:33:49;;;;;;;4.88;3.10;;;;;;;29.15;32.82;101599.50;6252429;28;20314;-49
2021/09/14 12:37:10;;;;;;;4.28;3.13;;;;;;;30.91;30.42;101604.53;6254962;28;20318;-54
2021/09/14 12:40:31;;;;;;;4.63;3.35;;;;;;;29.50;31.67;101613.88;6252624;28;20648;-50
2021/09/14 12:43:53;;;;;;;3.22;2.60;;;;;;;28.21;34.96;101605.47;6254610;28;20220;-51
2021/09/14 12:47:14;;;;;;;3.13;2.78;;;;;;;33.31;27.40;101605.03;6250805;28;20248;-53
2021/09/14 12:50:35;;;;;;;3.67;3.25;;;;;;;32.55;27.71;101608.31;6249672;28;20519;-54
2021/09/14 12:53:56;;;;;;;4.80;3.20;;;;;;;32.01;28.56;101606.84;6249906;28;20231;-48
2021/09/14 12:57:17;;;;;;;3.60;2.60;;;;;;;33.25;27.21;101592.09;6254830;28;20319;-49
2021/09/14 13:00:39;;;;;;;7.05;3.63;;;;;;;34.01;25.94;101585.84;6251302;28;20235;-54
2021/09/14 13:04:01;;;;;;;5.00;3.20;;;;;;;33.92;25.21;101580.31;6248865;28;20676;-50
2021/09/14 13:07:21;;;;;;;3.20;2.92;;;;;;;32.58;27.72;101588.38;6254012;28;20240;-49
2021/09/14 13:10:42;;;;;;;3.78;2.35;;;;;;;33.71;26.28;101577.84;6238680;28;20608;-48
2021/09/14 13:17:43;;;;;;;11.55;3.58;;;;;;;35.44;24.36;101569.75;6251299;28;20236;-49
2021/09/14 13:21:05;;;;;;;4.72;3.17;;;;;;;35.33;24.12;101561.88;6250077;28;20298;-47
2021/09/14 13:24:26;;;;;;;2.67;2.47;;;;;;;31.32;29.78;101551.75;6246894;28;20232;-49
2021/09/14 13:27:47;;;;;;;2.95;2.30;;;;;;;31.13;30.14;101547.94;6246217;28;20323;-49
2021/09/14 13:31:08;;;;;;;2.80;2.60;;;;;;;30.81;31.59;101542.56;6246803;28;20353;-50
2021/09/14 13:34:31;;;;;;;2.75;1.95;;;;;;;34.53;26.10;101540.19;6252030;28;20236;-48
2021/09/14 13:37:53;;;;;;;2.67;2.47;;;;;;;36.44;23.74;101531.25;6240249;28;20264;-52
2021/09/14 13:41:15;;;;;;;2.58;2.08;;;;;;;34.39;25.57;101536.13;6247139;28;20224;-52
2021/09/14 13:48:18;;;;;;;2.33;2.17;;;;;;;29.85;32.49;101525.25;6248906;28;20228;-46
2021/09/14 13:51:41;;;;;;;3.17;2.25;;;;;;;29.14;33.29;101535.25;6249316;28;20228;-52
2021/09/14 13:55:02;;;;;;;2.75;2.55;;;;;;;28.15;35.88;101526.44;6245967;28;20228;-55
2021/09/14 13:58:23;;;;;;;2.97;2.63;;;;;;;29.92;32.45;101529.16;6233435;28;20319;-56
2021/09/14 14:01:44;;;;;;;3.53;2.20;;;;;;;29.10;34.38;101526.56;6246698;28;20240;-51
2021/09/14 14:05:06;;;;;;;4.00;2.40;;;;;;;32.35;29.52;101524.72;6240583;28;20243;-47
2021/09/14 14:08:28;;;;;;;4.10;2.92;;;;;;;30.97;31.62;101531.41;6242876;28;20219;-48
2021/09/14 14:11:49;;;;;;;3.47;3.15;;;;;;;32.41;29.35;101522.47;6252215;28;20232;-52
2021/09/14 14:15:11;;;;;;;3.25;2.90;;;;;;;33.00;27.10;101521.53;6255163;28;20655;-52
2021/09/14 14:18:33;;;;;;;3.60;3.15;;;;;;;34.27;26.10;101510.31;6255503;28;20232;-50
2021/09/14 14:21:53;;;;;;;4.20;2.85;;;;;;;33.00;27.96;101510.75;6252670;28;20228;-52
2021/09/14 14:25:16;;;;;;;6.50;4.45;;;;;;;31.88;29.21;101519.06;6244141;28;20247;-52
2021/09/14 14:28:37;;;;;;;3.47;3.17;;;;;;;30.65;31.68;101524.19;6253264;28;20254;-51
2021/09/14 14:31:58;;;;;;;2.90;2.70;;;;;;;27.95;35.78;101514.47;6257392;28;20224;-53
2021/09/14 14:35:21;;;;;;;3.80;3.50;;;;;;;28.83;34.96;101522.34;6249427;28;20239;-51
2021/09/14 14:38:42;;;;;;;5.40;4.00;;;;;;;29.75;33.19;101518.94;6255984;28;20236;-50
2021/09/14 14:42:04;;;;;;;5.00;3.00;;;;;;;28.40;35.50;101520.16;6255040;28;20649;-48
2021/09/14 14:45:26;;;;;;;5.40;3.20;;;;;;;28.52;35.92;101514.84;6257365;28;20228;-54
2021/09/14 14:48:47;;;;;;;4.38;3.28;;;;;;;29.01;35.21;101509.34;6250787;28;20232;-50
2021/09/14 14:52:07;;;;;;;3.33;2.63;;;;;;;28.73;35.66;101507.03;6255148;28;20231;-49
2021/09/14 14:55:28;;;;;;;6.60;4.63;;;;;;;28.38;36.65;101503.34;6255000;28;20282;-51
2021/09/14 14:58:51;;;;;;;3.85;3.55;;;;;;;28.59;36.47;101506.25;6253723;28;20240;-50
2021/09/14 15:02:11;;;;;;;4.18;3.03;;;;;;;27.95;37.18;101498.41;6253451;28;20239;-48
2021/09/14 15:05:32;;;;;;;4.50;3.38;;;;;;;27.83;37.66;101486.72;6252064;28;20700;-51
2021/09/14 15:08:54;;;;;;;6.28;3.72;;;;;;;26.07;40.69;101489.63;6243114;28;20325;-49
2021/09/14 15:12:15;;;;;;;3.83;3.50;;;;;;;26.86;39.98;101488.06;6252617;28;20231;-49
2021/09/14 15:15:37;;;;;;;4.20;3.40;;;;;;;25.62;41.85;101490.69;6258615;28;20231;-50
2021/09/14 15:18:58;;;;;;;3.88;3.58;;;;;;;26.57;40.68;101492.63;6242137;28;20236;-53
2021/09/14 15:22:19;;;;;;;4.03;3.55;;;;;;;26.98;40.16;101485.53;6247136;28;20322;-49
2021/09/14 15:25:40;;;;;;;3.60;3.30;;;;;;;26.95;40.05;101489.28;6242995;28;20244;-51
2021/09/14 15:29:01;;;;;;;5.35;3.92;;;;;;;26.50;41.18;101496.66;6250672;28;20232;-52
2021/09/14 15:32:23;;;;;;;4.40;4.00;;;;;;;26.12;41.91;101487.53;6254711;28;20622;-52
2021/09/14 15:35:47;;;;;;;5.63;5.13;;;;;;;26.23;42.15;101491.31;6246803;28;20225;-50
2021/09/14 15:39:08;;;;;;;6.13;5.63;;;;;;;26.07;42.55;101481.63;6240358;28;20236;-50
2021/09/14 15:42:29;;;;;;;5.57;4.63;;;;;;;26.01;42.82;101484.69;6230997;28;20681;-51
2021/09/14 15:45:51;;;;;;;4.28;3.55;;;;;;;25.86;42.85;101482.94;6249528;28;20232;-51
2021/09/14 15:49:14;;;;;;;3.92;3.50;;;;;;;25.90;43.21;101485.34;6246810;28;20689;-49
2021/09/14 15:52:35;;;;;;;4.05;3.08;;;;;;;26.02;42.66;101481.06;6239754;28;20232;-53
2021/09/14 15:55:56;;;;;;;4.55;4.20;;;;;;;25.86;42.85;101482.94;6245234;28;20239;-54
2021/09/14 15:59:16;;;;;;;6.65;4.13;;;;;;;25.76;43.18;101484.50;6245212;28;20326;-50
2021/09/14 16:02:37;;;;;;;4.05;3.38;;;;;;;25.57;43.25;101472.31;6243220;28;20228;-48
2021/09/14 16:06:00;;;;;;;4.00;3.33;;;;;;;25.63;43.07;101471.06;6240899;28;20232;-52
2021/09/14 16:09:22;;;;;;;4.20;3.83;;;;;;;26.10;42.35;101468.09;6245821;28;20594;-47
2021/09/14 16:12:43;;;;;;;4.93;3.63;;;;;;;25.91;43.09;101460.41;6240228;28;20220;-53
2021/09/14 16:16:05;;;;;;;15.88;14.55;;;;;;;26.07;42.93;101459.41;6222639;28;20252;-47
2021/09/14 16:19:27;;;;;;;11.75;10.75;;;;;;;26.20;42.46;101470.16;6238769;28;20231;-48
2021/09/14 16:22:50;;;;;;;5.75;5.22;;;;;;;25.80;43.34;101462.00;6240666;28;20300;-50
2021/09/14 16:26:11;;;;;;;10.95;10.05;;;;;;;25.71;44.04;101460.78;6244909;28;20236;-49
2021/09/14 16:29:32;;;;;;;6.47;5.88;;;;;;;25.90;43.06;101465.78;6237565;28;20240;-51
2021/09/14 16:32:54;;;;;;;6.22;5.47;;;;;;;25.69;43.94;101468.03;6238938;28;20231;-51